Time;durP1;ratioP1;P1;durP2;ratioP2;P2;SDS_P1;SDS_P2;PMS_P1;PMS_P2;Temp;Humidity;BMP_temperature;BMP_pressure;BME280_temperature;BME280_humidity;BME280_pressure;Samples;Min_cycle;Max_cycle;Signal;HPM_P1;HPM_P2
2023/05/25 00:01:15;;;;;;;7.50;5.45;;;24.00;99.90;;;;;;5032418;28;20061;-51
2023/05/25 00:03:42;;;;;;;6.80;5.43;;;24.00;99.90;;;;;;5032755;28;20022;-52
2023/05/25 00:06:09;;;;;;;8.50;5.97;;;24.00;99.90;;;;;;5032572;28;20454;-52
2023/05/25 00:08:34;;;;;;;6.60;5.55;;;24.00;99.90;;;;;;5034149;28;20025;-52
2023/05/25 00:11:00;;;;;;;7.88;6.00;;;24.00;99.90;;;;;;5037217;28;20025;-53
2023/05/25 00:13:26;;;;;;;7.93;5.50;;;24.00;99.90;;;;;;5036428;28;20083;-53
2023/05/25 00:15:52;;;;;;;9.73;5.65;;;24.00;99.90;;;;;;5035831;28;20037;-54
2023/05/25 00:18:17;;;;;;;6.57;5.25;;;24.00;99.90;;;;;;5036678;28;20064;-53
2023/05/25 00:20:43;;;;;;;7.18;5.75;;;24.00;99.90;;;;;;5036428;28;20029;-54
2023/05/25 00:23:09;;;;;;;5.90;5.18;;;23.90;99.90;;;;;;5035846;28;20030;-54
2023/05/25 00:25:35;;;;;;;6.85;5.50;;;23.90;99.90;;;;;;5035918;28;20018;-54
2023/05/25 00:28:03;;;;;;;6.93;5.88;;;23.90;99.90;;;;;;5035739;28;20024;-54
2023/05/25 00:30:29;;;;;;;7.95;5.30;;;23.90;99.90;;;;;;5036375;28;20030;-54
2023/05/25 00:32:55;;;;;;;6.95;5.18;;;23.90;99.90;;;;;;5036264;28;20096;-53
2023/05/25 00:35:20;;;;;;;7.25;5.38;;;23.90;99.90;;;;;;5036448;28;20025;-54
2023/05/25 00:37:46;;;;;;;7.57;6.18;;;23.90;99.90;;;;;;5034962;28;20029;-54
2023/05/25 00:40:17;;;;;;;7.78;5.70;;;23.90;99.90;;;;;;5034810;28;20022;-53
2023/05/25 00:42:43;;;;;;;8.38;5.85;;;23.90;99.90;;;;;;5036160;28;20021;-53
2023/05/25 00:45:09;;;;;;;6.55;5.15;;;23.90;99.90;;;;;;5036572;28;20101;-53
2023/05/25 00:47:35;;;;;;;7.82;5.82;;;23.90;99.90;;;;;;5036282;28;20032;-53
2023/05/25 00:50:02;;;;;;;7.75;5.43;;;23.90;99.90;;;;;;5033933;28;20378;-53
2023/05/25 00:52:28;;;;;;;6.03;5.00;;;23.90;99.90;;;;;;5030643;28;20109;-53
2023/05/25 00:54:55;;;;;;;6.68;5.25;;;23.90;99.90;;;;;;5036043;28;20167;-53
2023/05/25 00:57:22;;;;;;;7.57;5.97;;;23.90;99.90;;;;;;5035943;28;20390;-54
2023/05/25 00:59:51;;;;;;;6.97;5.30;;;23.90;99.90;;;;;;5036078;28;20026;-53
2023/05/25 01:02:19;;;;;;;5.97;5.03;;;23.90;99.90;;;;;;5048745;22;20064;-56
2023/05/25 01:04:52;;;;;;;6.15;5.05;;;23.90;99.90;;;;;;5036170;28;20029;-56
2023/05/25 01:07:22;;;;;;;6.97;5.78;;;23.80;99.90;;;;;;5035719;28;20444;-56
2023/05/25 01:09:53;;;;;;;8.27;5.53;;;23.80;99.90;;;;;;5035889;28;20017;-56
2023/05/25 01:12:21;;;;;;;6.53;4.95;;;23.80;99.90;;;;;;5035895;28;20028;-56
2023/05/25 01:14:48;;;;;;;10.05;6.07;;;23.80;99.90;;;;;;5035851;28;20022;-56
2023/05/25 01:17:14;;;;;;;7.28;5.88;;;23.80;99.90;;;;;;5035718;28;20025;-57
2023/05/25 01:19:44;;;;;;;8.93;6.32;;;23.80;99.90;;;;;;5035138;28;20079;-56
2023/05/25 01:22:21;;;;;;;8.32;5.63;;;23.80;99.90;;;;;;5035700;28;20021;-56
2023/05/25 01:25:06;;;;;;;10.77;6.22;;;23.80;99.90;;;;;;5034806;28;20029;-56
2023/05/25 01:27:47;;;;;;;8.20;5.95;;;23.70;99.90;;;;;;5035216;28;20033;-56
2023/05/25 01:30:16;;;;;;;9.48;6.95;;;23.80;99.90;;;;;;5034965;28;20037;-57
2023/05/25 01:32:43;;;;;;;7.95;6.63;;;23.80;99.90;;;;;;5035704;28;20512;-56
2023/05/25 01:35:11;;;;;;;8.77;6.90;;;23.70;99.90;;;;;;5035762;28;20470;-56
2023/05/25 01:37:39;;;;;;;7.18;6.20;;;23.70;99.90;;;;;;5034442;28;20034;-56
2023/05/25 01:40:05;;;;;;;8.23;6.32;;;23.70;99.90;;;;;;5035786;28;20397;-56
2023/05/25 01:42:31;;;;;;;9.95;6.45;;;23.70;99.90;;;;;;5034356;28;20029;-56
2023/05/25 01:44:58;;;;;;;9.23;6.78;;;23.70;99.90;;;;;;5035446;28;20029;-56
2023/05/25 01:48:12;;;;;;;8.48;6.85;;;23.70;99.90;;;;;;5035557;28;20104;-56
2023/05/25 01:51:06;;;;;;;7.53;6.72;;;23.70;99.90;;;;;;5025337;28;20504;-57
2023/05/25 01:53:40;;;;;;;7.78;6.22;;;23.70;99.90;;;;;;5035582;28;20038;-57
2023/05/25 01:56:10;;;;;;;8.68;6.75;;;23.70;99.90;;;;;;5035375;28;20040;-57
2023/05/25 01:58:42;;;;;;;8.52;6.22;;;23.70;99.90;;;;;;5035379;28;20056;-56
2023/05/25 02:01:09;;;;;;;9.00;6.75;;;23.70;99.90;;;;;;5035590;28;20073;-55
2023/05/25 02:03:37;;;;;;;8.48;6.80;;;23.60;99.90;;;;;;5035186;28;20083;-56
2023/05/25 02:06:03;;;;;;;8.70;6.28;;;23.70;99.90;;;;;;5035225;28;20092;-56
2023/05/25 02:08:29;;;;;;;7.78;6.45;;;23.60;99.90;;;;;;5035122;28;20029;-56
2023/05/25 02:10:55;;;;;;;7.40;6.15;;;23.60;99.90;;;;;;5035020;28;20024;-56
2023/05/25 02:13:21;;;;;;;8.85;6.55;;;23.60;99.90;;;;;;5033954;28;20030;-56
2023/05/25 02:15:46;;;;;;;10.50;6.25;;;23.60;99.90;;;;;;5033537;28;20112;-57
2023/05/25 02:18:12;;;;;;;8.32;6.50;;;23.60;99.90;;;;;;5034842;28;20037;-56
2023/05/25 02:20:38;;;;;;;9.45;6.38;;;23.60;99.90;;;;;;5034778;28;20025;-56
2023/05/25 02:23:04;;;;;;;9.02;6.50;;;23.60;99.90;;;;;;5035161;28;20037;-56
2023/05/25 02:25:30;;;;;;;8.85;6.97;;;23.60;99.90;;;;;;5034822;28;20028;-56
2023/05/25 02:27:56;;;;;;;7.55;6.65;;;23.60;99.90;;;;;;5034772;28;20033;-56
2023/05/25 02:30:22;;;;;;;7.85;6.15;;;23.60;99.90;;;;;;5034562;28;20052;-56
2023/05/25 02:32:49;;;;;;;8.45;6.38;;;23.60;99.90;;;;;;5033669;28;20100;-56
2023/05/25 02:35:14;;;;;;;9.50;6.77;;;23.60;99.90;;;;;;5034630;28;20014;-56
2023/05/25 02:37:40;;;;;;;8.45;6.65;;;23.60;99.90;;;;;;5034367;28;20036;-56
2023/05/25 02:40:08;;;;;;;7.97;6.70;;;23.60;99.90;;;;;;5034606;28;20025;-56
2023/05/25 02:42:33;;;;;;;7.75;6.45;;;23.60;99.90;;;;;;5033341;28;20027;-56
2023/05/25 02:44:59;;;;;;;8.43;6.43;;;23.60;99.90;;;;;;5034442;28;20188;-55
2023/05/25 02:47:25;;;;;;;6.88;6.13;;;23.60;99.90;;;;;;5034602;28;20470;-55
2023/05/25 02:49:51;;;;;;;8.43;6.65;;;23.60;99.90;;;;;;5034249;28;20018;-56
2023/05/25 02:52:17;;;;;;;7.97;6.47;;;23.60;99.90;;;;;;5034529;28;20026;-56
2023/05/25 02:54:42;;;;;;;8.82;6.82;;;23.60;99.90;;;;;;5034496;28;20025;-56
2023/05/25 02:57:09;;;;;;;8.02;6.18;;;23.50;99.90;;;;;;5034106;28;20037;-56
2023/05/25 02:59:34;;;;;;;8.60;6.45;;;23.60;99.90;;;;;;5034411;28;20028;-56
2023/05/25 03:02:00;;;;;;;7.25;6.00;;;23.50;99.90;;;;;;5046663;22;20049;-54
2023/05/25 03:04:26;;;;;;;7.35;6.57;;;23.50;99.90;;;;;;5034404;28;20386;-54
2023/05/25 03:06:52;;;;;;;6.65;5.95;;;23.50;99.90;;;;;;5034215;28;20425;-55
2023/05/25 03:09:18;;;;;;;8.10;5.90;;;23.50;99.90;;;;;;5016097;28;20042;-52
2023/05/25 03:11:43;;;;;;;9.52;7.03;;;23.50;99.90;;;;;;5034027;28;20079;-53
2023/05/25 03:14:10;;;;;;;7.35;6.35;;;23.50;99.90;;;;;;5033950;28;20030;-52
2023/05/25 03:16:37;;;;;;;7.43;6.07;;;23.50;99.90;;;;;;5033901;28;20040;-53
2023/05/25 03:19:04;;;;;;;7.47;6.22;;;23.50;99.90;;;;;;5033846;28;20021;-53
2023/05/25 03:21:31;;;;;;;8.32;6.15;;;23.50;99.90;;;;;;5033980;28;20486;-52
2023/05/25 03:23:58;;;;;;;8.02;6.05;;;23.50;99.90;;;;;;5033957;28;20021;-53
2023/05/25 03:26:24;;;;;;;8.02;5.85;;;23.50;99.90;;;;;;5033925;28;20163;-53
2023/05/25 03:28:51;;;;;;;8.48;6.03;;;23.40;99.90;;;;;;5033652;28;20544;-54
2023/05/25 03:31:17;;;;;;;7.75;6.57;;;23.40;99.90;;;;;;5033675;28;20026;-53
2023/05/25 03:33:43;;;;;;;7.47;5.95;;;23.40;99.90;;;;;;5033605;28;20171;-52
2023/05/25 03:36:11;;;;;;;8.88;6.15;;;23.40;99.90;;;;;;5033418;28;20116;-54
2023/05/25 03:38:37;;;;;;;6.25;5.50;;;23.40;99.90;;;;;;5033723;28;20055;-53
2023/05/25 03:41:03;;;;;;;7.43;6.60;;;23.40;99.90;;;;;;5015989;28;20106;-52
2023/05/25 03:43:29;;;;;;;7.40;5.57;;;23.40;99.90;;;;;;5033187;28;20056;-53
2023/05/25 03:45:55;;;;;;;7.65;6.10;;;23.40;99.90;;;;;;5015744;28;20477;-53
2023/05/25 03:48:21;;;;;;;6.57;5.65;;;23.40;99.90;;;;;;5031788;28;20022;-54
2023/05/25 03:50:46;;;;;;;6.88;5.72;;;23.40;99.90;;;;;;5031984;28;20119;-54
2023/05/25 03:53:12;;;;;;;7.22;6.13;;;23.40;99.90;;;;;;5033227;28;20026;-52
2023/05/25 03:55:38;;;;;;;5.20;4.70;;;23.40;99.90;;;;;;5031516;28;20036;-53
2023/05/25 03:58:04;;;;;;;6.22;5.50;;;23.40;99.90;;;;;;5032787;28;20032;-53
2023/05/25 04:00:30;;;;;;;6.50;5.30;;;23.40;99.90;;;;;;5033407;28;20014;-54
2023/05/25 04:02:56;;;;;;;5.90;4.85;;;23.40;99.90;;;;;;5015433;28;20366;-52
2023/05/25 04:05:21;;;;;;;6.82;5.20;;;23.40;99.90;;;;;;5033178;28;20048;-53
2023/05/25 04:07:47;;;;;;;5.50;4.88;;;23.40;99.90;;;;;;5032669;28;20021;-53
2023/05/25 04:10:13;;;;;;;6.07;5.25;;;23.40;99.90;;;;;;5032968;28;20466;-53
2023/05/25 04:12:39;;;;;;;6.15;4.70;;;23.40;99.90;;;;;;5031484;28;20386;-54
2023/05/25 04:15:08;;;;;;;6.10;4.93;;;23.30;99.90;;;;;;5031712;28;20022;-54
2023/05/25 04:17:35;;;;;;;7.03;5.40;;;23.30;99.90;;;;;;5032858;28;20033;-53
2023/05/25 04:20:01;;;;;;;5.35;4.78;;;23.30;99.90;;;;;;5032775;28;20029;-53
2023/05/25 04:22:27;;;;;;;5.55;4.40;;;23.30;99.90;;;;;;5031470;28;20109;-53
2023/05/25 04:24:53;;;;;;;6.85;5.30;;;23.30;99.90;;;;;;5032736;28;20106;-53
2023/05/25 04:27:19;;;;;;;6.25;4.95;;;23.30;99.90;;;;;;5032493;28;20025;-54
2023/05/25 04:29:45;;;;;;;5.15;4.32;;;23.30;99.90;;;;;;5032687;28;20120;-53
2023/05/25 04:32:16;;;;;;;5.47;4.95;;;23.30;99.90;;;;;;5032616;28;20026;-53
2023/05/25 04:34:43;;;;;;;7.20;4.18;;;23.30;99.90;;;;;;5032507;28;20029;-54
2023/05/25 04:37:09;;;;;;;6.05;4.95;;;23.30;99.90;;;;;;5032749;28;20393;-54
2023/05/25 04:39:35;;;;;;;6.55;4.75;;;23.30;99.90;;;;;;5032538;28;20482;-54
2023/05/25 04:42:03;;;;;;;6.82;4.95;;;23.30;99.90;;;;;;5032728;28;20064;-54
2023/05/25 04:44:29;;;;;;;;;;;23.30;99.90;;;;;;5033096;28;20045;-54
2023/05/25 04:46:55;;;;;;;5.38;4.30;;;23.30;99.90;;;;;;5032600;28;19956;-55
2023/05/25 04:49:21;;;;;;;5.90;4.82;;;23.30;99.90;;;;;;5032603;28;20411;-54
2023/05/25 04:51:47;;;;;;;5.20;4.40;;;23.30;99.90;;;;;;5032370;28;20040;-53
2023/05/25 04:54:13;;;;;;;6.60;4.93;;;23.20;99.90;;;;;;5032535;28;20021;-53
2023/05/25 04:56:39;;;;;;;5.80;4.47;;;23.20;99.90;;;;;;5037439;28;20401;-53
2023/05/25 04:59:05;;;;;;;5.55;4.65;;;23.30;99.90;;;;;;5036276;28;20109;-54
2023/05/25 05:01:33;;;;;;;5.30;4.40;;;23.20;99.90;;;;;;5036086;28;20045;-54
2023/05/25 05:04:00;;;;;;;5.80;4.43;;;23.20;99.90;;;;;;5036085;28;20494;-54
2023/05/25 05:06:26;;;;;;;6.13;4.65;;;23.20;99.90;;;;;;5018421;28;20071;-53
2023/05/25 05:08:51;;;;;;;8.50;4.80;;;23.20;99.90;;;;;;5028318;28;20061;-53
2023/05/25 05:11:17;;;;;;;5.93;4.78;;;23.20;99.90;;;;;;5036099;28;20036;-53
2023/05/25 05:13:43;;;;;;;5.85;4.10;;;23.20;99.90;;;;;;5035925;28;20030;-54
2023/05/25 05:16:08;;;;;;;6.05;4.25;;;23.20;99.90;;;;;;5035690;28;20033;-53
2023/05/25 05:18:34;;;;;;;5.43;4.38;;;23.20;99.90;;;;;;5036091;28;20108;-54
2023/05/25 05:21:00;;;;;;;5.95;4.93;;;23.20;99.90;;;;;;5035704;28;20409;-54
2023/05/25 05:23:26;;;;;;;7.63;5.15;;;23.20;99.90;;;;;;5036022;28;20071;-54
2023/05/25 05:25:52;;;;;;;6.22;4.90;;;23.20;99.90;;;;;;5035708;28;20021;-55
2023/05/25 05:28:17;;;;;;;8.50;5.38;;;23.20;99.90;;;;;;5035947;28;20036;-53
2023/05/25 05:30:45;;;;;;;5.63;4.57;;;23.20;99.90;;;;;;5035723;28;20037;-55
2023/05/25 05:33:11;;;;;;;7.80;4.78;;;23.10;99.90;;;;;;5035580;28;20026;-53
2023/05/25 05:35:36;;;;;;;7.40;5.72;;;23.20;99.90;;;;;;5035028;28;20114;-53
2023/05/25 05:38:02;;;;;;;6.03;4.95;;;23.10;99.90;;;;;;5035572;28;20030;-53
2023/05/25 05:40:28;;;;;;;6.22;5.10;;;23.10;99.90;;;;;;5035397;28;20028;-53
2023/05/25 05:42:54;;;;;;;6.57;4.80;;;23.10;99.90;;;;;;5035250;28;20022;-53
2023/05/25 05:45:20;;;;;;;5.78;5.10;;;23.10;99.90;;;;;;5035614;28;20024;-53
2023/05/25 05:47:46;;;;;;;7.50;5.30;;;23.10;99.90;;;;;;5035044;28;20021;-54
2023/05/25 05:50:11;;;;;;;6.35;5.25;;;23.20;99.90;;;;;;5035501;28;20032;-53
2023/05/25 05:52:37;;;;;;;6.70;4.60;;;23.10;99.90;;;;;;5035313;28;20026;-55
2023/05/25 05:55:03;;;;;;;7.15;4.75;;;23.10;99.90;;;;;;5035236;28;20112;-53
2023/05/25 05:57:29;;;;;;;5.90;4.50;;;23.10;99.90;;;;;;5035091;28;20478;-55
2023/05/25 05:59:55;;;;;;;7.45;5.05;;;23.10;99.90;;;;;;5035341;28;20100;-54
2023/05/25 06:02:20;;;;;;;5.38;4.50;;;23.10;99.90;;;;;;5034688;28;20490;-53
2023/05/25 06:04:46;;;;;;;7.47;5.32;;;23.10;99.90;;;;;;5035255;28;20025;-54
2023/05/25 06:07:12;;;;;;;6.13;4.85;;;23.20;99.90;;;;;;5034861;28;20071;-54
2023/05/25 06:09:38;;;;;;;5.82;5.18;;;23.10;99.90;;;;;;5034973;28;20021;-55
2023/05/25 06:12:05;;;;;;;7.32;5.30;;;23.10;99.90;;;;;;5034895;28;20456;-54
2023/05/25 06:14:30;;;;;;;7.20;5.20;;;23.10;99.90;;;;;;5034455;28;20109;-54
2023/05/25 06:16:56;;;;;;;6.18;4.70;;;23.10;99.90;;;;;;5034636;28;20128;-54
2023/05/25 06:19:22;;;;;;;7.13;5.45;;;23.10;99.90;;;;;;5034621;28;20068;-55
2023/05/25 06:21:48;;;;;;;6.05;4.90;;;23.10;99.90;;;;;;5017245;28;20030;-53
2023/05/25 06:24:14;;;;;;;7.05;4.63;;;23.10;99.90;;;;;;5034393;28;20079;-55
2023/05/25 06:26:40;;;;;;;5.40;4.30;;;23.10;99.90;;;;;;5034452;28;20017;-53
2023/05/25 06:29:06;;;;;;;6.03;4.78;;;23.10;99.90;;;;;;5034731;28;20026;-55
2023/05/25 06:31:32;;;;;;;6.97;5.05;;;23.10;99.90;;;;;;5034428;28;20025;-53
2023/05/25 06:33:57;;;;;;;6.15;4.97;;;23.10;99.90;;;;;;5032721;28;20390;-53
2023/05/25 06:36:23;;;;;;;7.20;5.22;;;23.10;99.90;;;;;;5034467;28;20029;-55
2023/05/25 06:38:49;;;;;;;6.32;4.60;;;23.10;99.90;;;;;;5034332;28;20485;-53
2023/05/25 06:41:15;;;;;;;7.63;5.57;;;23.10;99.90;;;;;;5032898;28;20351;-55
2023/05/25 06:43:41;;;;;;;8.05;5.13;;;23.10;99.90;;;;;;5034324;28;20018;-54
2023/05/25 06:46:09;;;;;;;7.68;5.68;;;23.10;99.90;;;;;;5032593;28;20035;-53
2023/05/25 06:48:34;;;;;;;;;;;23.10;99.90;;;;;;5034638;28;20477;-52
2023/05/25 06:51:00;;;;;;;6.80;5.00;;;23.20;99.90;;;;;;5034169;28;19912;-54
2023/05/25 06:53:26;;;;;;;7.03;5.13;;;23.20;99.90;;;;;;5034050;28;20040;-53
2023/05/25 06:55:52;;;;;;;7.00;5.35;;;23.20;99.90;;;;;;5033806;28;20021;-53
2023/05/25 06:58:17;;;;;;;7.95;4.55;;;23.20;99.90;;;;;;5033817;28;20117;-54
2023/05/25 07:00:43;;;;;;;7.25;4.80;;;23.20;99.90;;;;;;5033740;28;20512;-54
2023/05/25 07:03:09;;;;;;;7.55;5.57;;;23.20;99.90;;;;;;5033816;28;20492;-53
2023/05/25 07:05:35;;;;;;;6.88;5.00;;;23.20;99.90;;;;;;5033875;28;20067;-52
2023/05/25 07:08:00;;;;;;;5.68;4.40;;;23.20;99.90;;;;;;5033931;28;20366;-52
2023/05/25 07:10:26;;;;;;;9.52;5.93;;;23.20;99.90;;;;;;5032549;28;20540;-54
2023/05/25 07:12:52;;;;;;;6.10;4.72;;;23.20;99.90;;;;;;5033617;28;20018;-53
2023/05/25 07:15:17;;;;;;;8.27;5.00;;;23.20;99.90;;;;;;5033557;28;20091;-56
2023/05/25 07:17:44;;;;;;;5.28;4.30;;;23.20;99.90;;;;;;5032740;28;20049;-54
2023/05/25 07:20:11;;;;;;;6.25;4.80;;;23.20;99.90;;;;;;5031289;28;20022;-53
2023/05/25 07:22:37;;;;;;;7.60;4.85;;;23.20;99.90;;;;;;5033575;28;20108;-55
2023/05/25 07:25:03;;;;;;;5.18;4.10;;;23.20;99.90;;;;;;5032766;28;20152;-53
2023/05/25 07:27:30;;;;;;;7.22;6.25;;;23.20;99.90;;;;;;5033646;28;20036;-53
2023/05/25 07:29:56;;;;;;;9.48;7.43;;;23.20;99.90;;;;;;5032980;28;20184;-52
2023/05/25 07:32:21;;;;;;;9.15;6.55;;;23.10;99.90;;;;;;5018043;28;20124;-51
2023/05/25 07:34:47;;;;;;;7.97;6.05;;;23.10;99.90;;;;;;5031956;28;20474;-51
2023/05/25 07:37:13;;;;;;;9.13;7.07;;;23.10;99.90;;;;;;5032722;28;20044;-51
2023/05/25 07:39:39;;;;;;;12.55;8.02;;;23.00;99.90;;;;;;5033068;28;20036;-51
2023/05/25 07:42:05;;;;;;;8.02;7.03;;;22.90;99.90;;;;;;5033538;28;20419;-53
2023/05/25 07:44:31;;;;;;;10.70;7.63;;;22.90;99.90;;;;;;5033208;28;20057;-52
2023/05/25 07:46:57;;;;;;;12.55;7.00;;;22.80;99.90;;;;;;5033357;28;20449;-51
2023/05/25 07:49:22;;;;;;;7.57;6.50;;;22.80;99.90;;;;;;5032853;28;20104;-54
2023/05/25 07:51:48;;;;;;;7.28;5.80;;;22.70;99.90;;;;;;5031744;28;20025;-54
2023/05/25 07:54:14;;;;;;;8.68;6.85;;;22.60;99.90;;;;;;5033060;28;20026;-53
2023/05/25 07:56:39;;;;;;;10.65;7.32;;;22.60;99.90;;;;;;5033025;28;20462;-51
2023/05/25 07:59:05;;;;;;;11.65;7.43;;;22.60;99.90;;;;;;5032388;28;20029;-53
2023/05/25 08:01:31;;;;;;;10.05;6.88;;;22.60;99.90;;;;;;5030926;28;20057;-52
2023/05/25 08:03:57;;;;;;;10.30;6.95;;;22.60;99.90;;;;;;5032492;28;20405;-53
2023/05/25 08:06:23;;;;;;;8.00;6.75;;;22.50;99.90;;;;;;5032505;28;20053;-52
2023/05/25 08:08:49;;;;;;;8.15;6.47;;;22.50;99.90;;;;;;5033061;28;20486;-53
2023/05/25 08:11:18;;;;;;;9.43;7.20;;;22.50;99.90;;;;;;5032601;28;20052;-54
2023/05/25 08:13:44;;;;;;;10.50;7.25;;;22.50;99.90;;;;;;5032769;28;20021;-53
2023/05/25 08:16:10;;;;;;;9.40;6.68;;;22.50;99.90;;;;;;5032743;28;20433;-51
2023/05/25 08:18:36;;;;;;;7.43;6.40;;;22.40;99.90;;;;;;5032368;28;20030;-50
2023/05/25 08:21:01;;;;;;;8.48;6.20;;;22.40;99.90;;;;;;5029180;28;20512;-52
2023/05/25 08:23:27;;;;;;;5.72;4.68;;;22.40;99.90;;;;;;5029913;28;20509;-52
2023/05/25 08:25:53;;;;;;;8.07;5.95;;;22.50;99.90;;;;;;5032129;28;20401;-51
2023/05/25 08:28:22;;;;;;;15.85;5.22;;;22.40;99.90;;;;;;5031712;28;20029;-51
2023/05/25 08:30:47;;;;;;;5.97;5.25;;;22.50;99.90;;;;;;5014098;28;20025;-52
2023/05/25 08:33:13;;;;;;;6.35;4.82;;;22.50;99.90;;;;;;5035792;28;20036;-52
2023/05/25 08:35:41;;;;;;;4.90;4.35;;;22.50;99.90;;;;;;5044266;28;20041;-50
2023/05/25 08:38:08;;;;;;;6.35;4.00;;;22.60;99.90;;;;;;5037374;28;20485;-50
2023/05/25 08:40:34;;;;;;;5.22;4.18;;;22.60;99.90;;;;;;5035513;28;20026;-50
2023/05/25 08:43:00;;;;;;;5.63;4.32;;;22.60;99.90;;;;;;5035695;28;20101;-51
2023/05/25 08:45:25;;;;;;;6.50;4.28;;;22.60;99.90;;;;;;5035971;28;20022;-50
2023/05/25 08:47:57;;;;;;;6.80;4.47;;;22.60;99.90;;;;;;5046060;28;20033;-50
2023/05/25 08:50:25;;;;;;;5.78;3.30;;;22.60;99.90;;;;;;5040366;28;20112;-49
2023/05/25 08:52:54;;;;;;;6.88;3.55;;;22.70;99.90;;;;;;5036876;28;20113;-50
2023/05/25 08:55:24;;;;;;;5.75;3.97;;;22.70;99.90;;;;;;5035562;28;20056;-52
2023/05/25 08:57:56;;;;;;;5.35;3.38;;;22.80;99.90;;;;;;5019895;28;20029;-51
2023/05/25 09:00:33;;;;;;;7.22;3.65;;;22.80;99.90;;;;;;5040272;28;20513;-52
2023/05/25 09:03:16;;;;;;;6.87;4.57;;;22.80;99.90;;;;;;5045394;28;20068;-52
2023/05/25 09:05:42;;;;;;;5.95;3.33;;;22.80;99.90;;;;;;5033194;28;20025;-52
2023/05/25 09:08:09;;;;;;;4.85;4.35;;;22.80;99.90;;;;;;5035227;28;20026;-51
2023/05/25 09:10:36;;;;;;;5.70;4.30;;;22.80;99.90;;;;;;5037318;28;20045;-50
2023/05/25 09:13:03;;;;;;;6.95;3.60;;;22.90;99.90;;;;;;5043795;28;20018;-52
2023/05/25 09:15:29;;;;;;;4.53;3.53;;;22.90;99.90;;;;;;5035212;28;20377;-52
2023/05/25 09:17:55;;;;;;;3.88;2.67;;;22.90;99.90;;;;;;5035089;28;20116;-51
2023/05/25 09:20:22;;;;;;;4.10;3.45;;;22.90;99.90;;;;;;5013247;28;20108;-52
2023/05/25 09:22:47;;;;;;;4.30;3.45;;;22.90;99.90;;;;;;5035341;28;20026;-52
2023/05/25 09:25:19;;;;;;;3.78;3.13;;;22.90;99.90;;;;;;5035469;28;20036;-53
2023/05/25 09:27:45;;;;;;;4.15;3.25;;;22.90;99.90;;;;;;5046148;28;20055;-56
2023/05/25 09:30:11;;;;;;;4.90;2.92;;;22.90;99.90;;;;;;5035162;28;20296;-53
2023/05/25 09:32:37;;;;;;;4.80;2.83;;;22.90;99.90;;;;;;5034810;28;20355;-54
2023/05/25 09:35:11;;;;;;;7.03;2.97;;;22.90;99.90;;;;;;5040098;28;20033;-52
2023/05/25 09:37:38;;;;;;;4.50;3.10;;;23.00;99.90;;;;;;5040395;28;20044;-52
2023/05/25 09:40:05;;;;;;;3.95;3.00;;;23.00;99.90;;;;;;5044871;28;20029;-51
2023/05/25 09:42:35;;;;;;;5.47;2.88;;;23.00;99.90;;;;;;5035225;28;20040;-49
2023/05/25 09:45:04;;;;;;;6.78;3.00;;;23.00;99.90;;;;;;5033014;28;20428;-51
2023/05/25 09:47:30;;;;;;;4.53;3.45;;;23.00;99.90;;;;;;5034140;28;20030;-53
2023/05/25 09:49:57;;;;;;;4.07;2.72;;;23.00;99.90;;;;;;5037055;28;20898;-53
2023/05/25 09:52:23;;;;;;;3.92;2.97;;;23.00;99.90;;;;;;5034701;28;20029;-52
2023/05/25 09:54:50;;;;;;;4.32;2.80;;;23.00;99.90;;;;;;5034342;28;20501;-53
2023/05/25 09:57:18;;;;;;;3.05;2.65;;;23.00;99.90;;;;;;5034253;28;20044;-53
2023/05/25 09:59:44;;;;;;;3.75;3.00;;;23.00;99.90;;;;;;5034393;28;20029;-54
2023/05/25 10:02:11;;;;;;;4.03;3.22;;;23.00;99.90;;;;;;5015919;28;20089;-53
2023/05/25 10:04:37;;;;;;;3.75;3.05;;;23.00;99.90;;;;;;5034572;28;20025;-57
2023/05/25 10:07:04;;;;;;;4.47;3.30;;;23.00;99.90;;;;;;5034175;28;20282;-52
2023/05/25 10:09:31;;;;;;;4.75;3.88;;;23.00;99.90;;;;;;5030003;28;20065;-53
2023/05/25 10:11:58;;;;;;;5.18;4.50;;;23.00;99.90;;;;;;5034041;28;20025;-53
2023/05/25 10:14:25;;;;;;;;;;;23.00;99.90;;;;;;5034281;28;20098;-55
2023/05/25 10:16:54;;;;;;;5.35;4.60;;;23.00;99.90;;;;;;5018188;28;20397;-54
2023/05/25 10:19:31;;;;;;;7.78;4.97;;;23.00;99.90;;;;;;5034197;28;20029;-53
2023/05/25 10:22:24;;;;;;;7.57;4.50;;;23.00;99.90;;;;;;5031724;28;20060;-54
2023/05/25 10:25:11;;;;;;;5.25;3.97;;;22.90;99.90;;;;;;5031028;28;20057;-51
2023/05/25 10:27:58;;;;;;;5.25;3.97;;;22.90;99.90;;;;;;5033432;28;20037;-52
2023/05/25 10:30:26;;;;;;;12.23;3.65;;;22.90;99.90;;;;;;5043803;28;20053;-52
2023/05/25 10:32:55;;;;;;;4.78;3.65;;;22.90;99.90;;;;;;5016060;28;20520;-53
2023/05/25 10:35:22;;;;;;;3.40;3.10;;;22.90;99.90;;;;;;5030830;28;20037;-52
2023/05/25 10:37:52;;;;;;;5.68;4.28;;;22.90;99.90;;;;;;5033275;28;20065;-53
2023/05/25 10:40:24;;;;;;;5.97;4.40;;;22.90;99.90;;;;;;5033700;28;20022;-52
2023/05/25 10:42:50;;;;;;;6.95;4.22;;;22.80;99.90;;;;;;5033509;28;20476;-51
2023/05/25 10:45:17;;;;;;;5.03;3.88;;;22.80;99.90;;;;;;5033365;28;20094;-52
2023/05/25 10:47:45;;;;;;;5.40;4.22;;;22.80;99.90;;;;;;5042297;28;20025;-52
2023/05/25 10:50:27;;;;;;;12.18;7.32;;;22.80;99.90;;;;;;5035595;28;20505;-52
2023/05/25 10:52:57;;;;;;;10.77;6.65;;;22.80;99.90;;;;;;5016225;28;20043;-52
2023/05/25 10:55:26;;;;;;;10.48;6.68;;;22.80;99.90;;;;;;5032031;28;20087;-52
2023/05/25 10:58:13;;;;;;;10.82;6.25;;;22.80;99.90;;;;;;5033074;28;20044;-51
2023/05/25 11:00:40;;;;;;;8.43;5.38;;;22.80;99.90;;;;;;5044020;28;20056;-52
2023/05/25 11:03:07;;;;;;;7.93;4.70;;;22.80;99.90;;;;;;5032842;28;20405;-53
2023/05/25 11:05:34;;;;;;;6.03;4.25;;;22.80;99.90;;;;;;5033712;28;20036;-51
2023/05/25 11:08:02;;;;;;;6.07;4.18;;;22.90;99.90;;;;;;5040026;28;20021;-51
2023/05/25 11:10:57;;;;;;;4.80;3.42;;;22.90;99.90;;;;;;5036693;28;20032;-52
2023/05/25 11:13:32;;;;;;;6.50;3.80;;;22.90;99.90;;;;;;5037050;28;20048;-56
2023/05/25 11:16:08;;;;;;;5.82;3.20;;;23.00;99.90;;;;;;5032482;28;20482;-56
2023/05/25 11:18:42;;;;;;;13.55;4.03;;;23.00;99.90;;;;;;5032533;28;20065;-54
2023/05/25 11:21:33;;;;;;;5.28;3.20;;;23.00;99.90;;;;;;5033128;28;20013;-54
2023/05/25 11:24:10;;;;;;;6.72;3.20;;;23.10;99.90;;;;;;5030347;28;20435;-53
2023/05/25 11:26:36;;;;;;;3.75;2.70;;;23.10;99.90;;;;;;5033637;28;20045;-53
2023/05/25 11:29:13;;;;;;;7.63;2.97;;;23.10;99.90;;;;;;5031347;28;20069;-53
2023/05/25 11:31:39;;;;;;;6.28;3.55;;;23.10;99.90;;;;;;5032014;28;20025;-54
2023/05/25 11:34:05;;;;;;;5.07;2.90;;;23.20;99.90;;;;;;5033528;28;20030;-54
2023/05/25 11:36:33;;;;;;;6.63;3.40;;;23.20;99.90;;;;;;5033058;28;20029;-54
2023/05/25 11:39:01;;;;;;;5.60;3.00;;;23.20;99.90;;;;;;5033287;28;20033;-53
2023/05/25 11:41:33;;;;;;;6.15;3.60;;;23.20;99.90;;;;;;5033021;28;20010;-54
2023/05/25 11:44:05;;;;;;;10.73;4.68;;;23.20;99.90;;;;;;5033248;28;20029;-53
2023/05/25 11:46:33;;;;;;;11.45;5.00;;;23.30;99.90;;;;;;5018971;28;20053;-54
2023/05/25 11:48:59;;;;;;;;;;;23.30;99.90;;;;;;5033473;28;20017;-54
2023/05/25 11:51:27;;;;;;;5.78;3.95;;;23.30;99.90;;;;;;5032967;28;20388;-53
2023/05/25 11:53:53;;;;;;;7.72;4.35;;;23.30;99.90;;;;;;5031667;28;20021;-53
2023/05/25 11:56:21;;;;;;;6.20;4.03;;;23.30;99.90;;;;;;5032909;28;20064;-54
2023/05/25 11:58:49;;;;;;;6.78;4.60;;;23.30;99.90;;;;;;5033151;28;20021;-53
2023/05/25 12:01:22;;;;;;;6.45;4.40;;;23.30;99.90;;;;;;5032745;28;20593;-55
2023/05/25 12:03:54;;;;;;;6.75;4.05;;;23.30;99.90;;;;;;5032832;28;20100;-52
2023/05/25 12:06:24;;;;;;;8.73;4.10;;;23.40;99.90;;;;;;5032911;28;20029;-53
2023/05/25 12:08:50;;;;;;;8.15;4.70;;;23.30;99.90;;;;;;5032999;28;20502;-53
2023/05/25 12:11:16;;;;;;;7.90;4.85;;;23.40;99.90;;;;;;5031493;28;20022;-53
2023/05/25 12:13:41;;;;;;;9.00;4.68;;;23.40;99.90;;;;;;5033052;28;20470;-53
2023/05/25 12:16:07;;;;;;;6.38;4.03;;;23.40;99.90;;;;;;5032816;28;20038;-53
2023/05/25 12:18:33;;;;;;;6.85;4.28;;;23.40;99.90;;;;;;5032803;28;20029;-53
2023/05/25 12:20:59;;;;;;;6.60;4.63;;;23.40;99.90;;;;;;5032886;28;20045;-53
2023/05/25 12:23:25;;;;;;;5.63;4.20;;;23.40;99.90;;;;;;5032848;28;20405;-52
2023/05/25 12:26:09;;;;;;;6.55;4.22;;;23.40;99.90;;;;;;5031331;28;20026;-52
2023/05/25 12:28:35;;;;;;;6.70;4.43;;;23.40;99.90;;;;;;5032892;28;20030;-53
2023/05/25 12:31:23;;;;;;;7.65;4.70;;;23.40;99.90;;;;;;5032584;28;20018;-53
2023/05/25 12:34:03;;;;;;;6.35;4.65;;;23.50;99.90;;;;;;5033050;28;20026;-53
2023/05/25 12:36:40;;;;;;;7.15;4.50;;;23.50;99.90;;;;;;5020625;28;20025;-53
2023/05/25 12:39:06;;;;;;;7.93;4.80;;;23.50;99.90;;;;;;5032508;28;20044;-52
2023/05/25 12:41:52;;;;;;;10.70;5.27;;;23.50;99.90;;;;;;5032539;28;20021;-52
2023/05/25 12:44:20;;;;;;;7.07;4.50;;;23.50;99.90;;;;;;5032276;28;20033;-53
2023/05/25 12:46:47;;;;;;;7.65;5.28;;;23.60;99.90;;;;;;5032716;28;20021;-53
2023/05/25 12:49:30;;;;;;;7.97;5.27;;;23.60;99.90;;;;;;5032341;28;20100;-54
2023/05/25 12:51:57;;;;;;;10.27;5.78;;;23.60;99.90;;;;;;5032603;28;20266;-53